createdAt,value
2022-09-15T00:01:45.800Z,17.40
2022-09-15T00:04:17.810Z,17.40
2022-09-15T00:06:49.219Z,17.40
2022-09-15T00:09:20.657Z,17.40
2022-09-15T00:11:53.924Z,17.40
2022-09-15T00:14:26.264Z,17.40
2022-09-15T00:16:57.780Z,17.40
2022-09-15T00:19:29.133Z,17.40
2022-09-15T00:22:00.517Z,17.30
2022-09-15T00:24:33.094Z,17.30
2022-09-15T00:27:05.756Z,17.40
2022-09-15T00:29:38.684Z,17.40
2022-09-15T00:32:10.350Z,17.30
2022-09-15T00:34:42.841Z,17.40
2022-09-15T00:37:14.203Z,17.40
2022-09-15T00:39:46.703Z,17.30
2022-09-15T00:42:19.830Z,17.30
2022-09-15T00:44:55.882Z,17.20
2022-09-15T00:47:31.406Z,17.20
2022-09-15T00:50:05.894Z,17.20
2022-09-15T00:52:41.818Z,17.10
2022-09-15T00:55:17.840Z,17.10
2022-09-15T00:57:52.720Z,17.10
2022-09-15T01:00:28.005Z,17.10
2022-09-15T01:03:00.213Z,17.10
2022-09-15T01:05:34.826Z,17.10
2022-09-15T01:08:10.301Z,17.10
2022-09-15T01:10:42.393Z,17.00
2022-09-15T01:13:16.273Z,17.00
2022-09-15T01:15:52.800Z,17.00
2022-09-15T01:18:28.028Z,17.00
2022-09-15T01:21:17.229Z,17.00
2022-09-15T01:24:14.010Z,17.00
2022-09-15T01:27:09.665Z,17.00
2022-09-15T01:30:09.421Z,16.90
2022-09-15T01:33:06.818Z,16.90
2022-09-15T01:38:50.837Z,17.00
2022-09-15T01:41:27.167Z,16.90
2022-09-15T01:44:04.146Z,16.90
2022-09-15T01:46:39.532Z,16.90
2022-09-15T01:49:14.674Z,16.90
2022-09-15T01:51:47.996Z,16.90
2022-09-15T01:54:22.824Z,16.90
2022-09-15T01:56:55.273Z,16.80
2022-09-15T01:59:27.739Z,16.80
2022-09-15T02:02:02.094Z,16.80
2022-09-15T02:04:38.826Z,16.80
2022-09-15T02:07:14.229Z,16.70
2022-09-15T02:12:31.815Z,16.60
2022-09-15T02:15:07.833Z,16.70
2022-09-15T02:17:42.638Z,16.70
2022-09-15T02:20:18.029Z,16.70
2022-09-15T02:22:53.826Z,16.70
2022-09-15T02:25:30.054Z,16.70
2022-09-15T02:28:06.095Z,16.70
2022-09-15T02:30:41.166Z,16.70
2022-09-15T02:33:15.897Z,16.70
2022-09-15T02:35:48.021Z,16.60
2022-09-15T02:38:20.809Z,16.60
2022-09-15T02:40:53.381Z,16.60
2022-09-15T02:43:27.038Z,16.60
2022-09-15T02:45:59.911Z,16.50
2022-09-15T02:48:31.280Z,16.50
2022-09-15T02:51:03.709Z,16.50
2022-09-15T02:53:36.875Z,16.50
2022-09-15T02:56:09.960Z,16.40
2022-09-15T02:58:42.304Z,16.40
2022-09-15T03:01:16.391Z,16.40
2022-09-15T03:03:48.552Z,16.40
2022-09-15T03:06:21.266Z,16.40
2022-09-15T03:08:54.636Z,16.40
2022-09-15T03:11:28.683Z,16.40
2022-09-15T03:14:01.831Z,16.40
2022-09-15T03:16:36.472Z,16.50
2022-09-15T03:19:08.059Z,16.50
2022-09-15T03:21:39.504Z,16.50
2022-09-15T03:24:11.864Z,16.50
2022-09-15T03:26:44.660Z,16.50
2022-09-15T03:29:16.547Z,16.50
2022-09-15T03:31:48.266Z,16.50
2022-09-15T03:34:20.108Z,16.50
2022-09-15T03:36:52.491Z,16.60
2022-09-15T03:39:25.003Z,16.50
2022-09-15T03:41:56.679Z,16.50
2022-09-15T03:44:29.041Z,16.50
2022-09-15T03:47:00.492Z,16.50
2022-09-15T03:49:32.036Z,16.50
2022-09-15T03:52:04.137Z,16.50
2022-09-15T03:54:36.174Z,16.50
2022-09-15T03:57:08.593Z,16.50
2022-09-15T03:59:40.093Z,16.50
2022-09-15T04:02:12.634Z,16.50
2022-09-15T04:04:44.987Z,16.40
2022-09-15T04:07:17.473Z,16.50
2022-09-15T04:09:49.865Z,16.40
2022-09-15T04:12:22.195Z,16.40
2022-09-15T04:14:54.590Z,16.40
2022-09-15T04:17:27.481Z,16.30
2022-09-15T04:19:59.645Z,16.30
2022-09-15T04:22:33.089Z,16.30
2022-09-15T04:25:07.368Z,16.30
2022-09-15T04:27:38.793Z,16.30
2022-09-15T04:30:11.501Z,16.30
2022-09-15T04:32:42.893Z,16.30
2022-09-15T04:35:14.335Z,16.30
2022-09-15T04:37:45.626Z,16.30
2022-09-15T04:40:17.384Z,16.20
2022-09-15T04:42:49.644Z,16.20
2022-09-15T04:45:21.444Z,16.20
2022-09-15T04:47:53.575Z,16.10
2022-09-15T04:50:24.712Z,16.00
2022-09-15T04:52:56.086Z,16.00
2022-09-15T04:55:27.505Z,16.00
2022-09-15T04:58:00.035Z,15.90
2022-09-15T05:00:33.335Z,15.90
2022-09-15T05:03:04.641Z,15.90
2022-09-15T05:05:36.337Z,15.90
2022-09-15T05:08:08.057Z,15.90
2022-09-15T05:10:39.690Z,15.90
2022-09-15T05:13:10.986Z,15.90
2022-09-15T05:15:42.391Z,16.00
2022-09-15T05:18:13.794Z,16.00
2022-09-15T05:20:45.124Z,16.00
2022-09-15T05:23:16.454Z,16.00
2022-09-15T05:25:55.899Z,16.00
2022-09-15T05:28:27.545Z,16.10
2022-09-15T05:30:58.840Z,16.10
2022-09-15T05:33:30.182Z,16.20
2022-09-15T05:36:02.340Z,16.20
2022-09-15T05:38:34.617Z,16.20
2022-09-15T05:41:07.266Z,16.20
2022-09-15T05:43:40.086Z,16.30
2022-09-15T05:46:12.700Z,16.40
2022-09-15T05:48:44.973Z,16.40
2022-09-15T05:51:16.448Z,16.40
2022-09-15T05:53:47.798Z,16.40
2022-09-15T05:56:20.289Z,16.50
2022-09-15T05:58:52.076Z,16.50
2022-09-15T06:01:25.047Z,16.50
2022-09-15T06:03:57.554Z,16.60
2022-09-15T06:06:29.005Z,16.70
2022-09-15T06:09:01.755Z,16.70
2022-09-15T06:11:34.482Z,16.60
2022-09-15T06:14:06.653Z,16.70
2022-09-15T06:16:39.049Z,16.70
2022-09-15T06:19:10.753Z,16.60
2022-09-15T06:21:42.043Z,16.60
2022-09-15T06:24:13.798Z,16.70
2022-09-15T06:26:45.209Z,16.90
2022-09-15T06:29:16.420Z,16.90
2022-09-15T06:31:48.098Z,17.00
2022-09-15T06:34:19.644Z,17.00
2022-09-15T06:36:50.910Z,17.00
2022-09-15T06:39:22.300Z,17.00
2022-09-15T06:42:02.303Z,16.90
2022-09-15T06:44:26.724Z,16.90
2022-09-15T06:46:58.327Z,16.90
2022-09-15T06:49:31.144Z,17.00
2022-09-15T06:52:02.663Z,17.10
2022-09-15T06:54:34.588Z,17.20
2022-09-15T06:57:06.388Z,17.40
2022-09-15T06:59:37.718Z,17.50
2022-09-15T07:02:10.326Z,17.60
2022-09-15T07:04:41.697Z,17.60
2022-09-15T07:07:13.297Z,17.50
2022-09-15T07:09:48.807Z,17.50
2022-09-15T07:12:17.574Z,17.40
2022-09-15T07:14:48.964Z,17.40
2022-09-15T07:17:20.694Z,17.50
2022-09-15T07:19:52.282Z,17.50
2022-09-15T07:22:25.163Z,17.50
2022-09-15T07:24:56.465Z,17.50
2022-09-15T07:27:29.593Z,17.60
2022-09-15T07:30:02.104Z,17.70
2022-09-15T07:32:34.412Z,17.70
2022-09-15T07:35:06.479Z,17.80
2022-09-15T07:37:37.715Z,17.90
2022-09-15T07:40:12.166Z,18.00
2022-09-15T07:42:45.681Z,18.10
2022-09-15T07:45:17.256Z,18.00
2022-09-15T07:47:49.013Z,17.90
2022-09-15T07:50:20.440Z,18.10
2022-09-15T07:52:51.866Z,18.20
2022-09-15T07:55:23.536Z,18.40
2022-09-15T07:57:59.818Z,18.70
2022-09-15T08:00:32.495Z,19.10
2022-09-15T08:03:04.349Z,19.30
2022-09-15T08:05:40.297Z,19.50
2022-09-15T08:08:09.483Z,19.70
2022-09-15T08:10:41.167Z,19.70
2022-09-15T08:13:12.813Z,19.70
2022-09-15T08:15:45.364Z,19.70
2022-09-15T08:18:16.884Z,19.80
2022-09-15T08:20:48.149Z,19.70
2022-09-15T08:23:19.497Z,19.50
2022-09-15T08:25:51.560Z,19.50
2022-09-15T08:28:23.166Z,19.50
2022-09-15T08:31:00.930Z,19.60
2022-09-15T08:33:32.354Z,19.70
2022-09-15T08:36:05.797Z,19.80
2022-09-15T08:38:39.105Z,20.00
2022-09-15T08:41:13.253Z,20.10
2022-09-15T08:43:48.892Z,20.10
2022-09-15T08:46:23.565Z,20.20
2022-09-15T08:49:02.734Z,20.20
2022-09-15T08:51:35.316Z,20.20
2022-09-15T08:54:12.612Z,20.20
2022-09-15T08:56:45.631Z,20.30
2022-09-15T08:59:18.893Z,20.20
2022-09-15T09:02:04.328Z,20.20
2022-09-15T09:04:52.242Z,20.10
2022-09-15T09:07:31.679Z,20.10
2022-09-15T09:10:07.196Z,20.00
2022-09-15T09:12:55.685Z,20.00
2022-09-15T09:15:34.906Z,20.10
2022-09-15T09:18:23.445Z,20.10
2022-09-15T09:21:00.054Z,20.10
2022-09-15T09:23:34.687Z,20.20
2022-09-15T09:26:09.948Z,20.50
2022-09-15T09:28:42.269Z,20.80
2022-09-15T09:31:18.226Z,21.00
2022-09-15T09:33:54.721Z,21.40
2022-09-15T09:36:27.183Z,21.70
2022-09-15T09:38:59.097Z,22.00
2022-09-15T09:41:36.307Z,21.90
2022-09-15T09:44:11.682Z,21.60
2022-09-15T09:46:45.005Z,21.60
2022-09-15T09:49:22.822Z,21.60
2022-09-15T09:51:55.168Z,21.60
2022-09-15T09:54:28.592Z,21.50
2022-09-15T09:57:21.535Z,21.50
2022-09-15T09:59:53.659Z,21.50
2022-09-15T10:02:26.885Z,21.20
2022-09-15T10:05:12.267Z,21.00
2022-09-15T10:07:44.503Z,21.00
2022-09-15T10:10:23.684Z,21.10
2022-09-15T10:12:58.753Z,21.30
2022-09-15T10:15:32.380Z,21.20
2022-09-15T10:18:04.108Z,21.30
2022-09-15T10:20:38.087Z,21.30
2022-09-15T10:23:13.487Z,21.30
2022-09-15T10:25:58.738Z,21.30
2022-09-15T10:28:21.608Z,21.20
2022-09-15T10:31:05.977Z,21.00
2022-09-15T10:33:38.195Z,20.90
2022-09-15T10:36:14.024Z,20.80
2022-09-15T10:38:48.736Z,20.60
2022-09-15T10:41:27.297Z,20.40
2022-09-15T10:44:06.790Z,20.10
2022-09-15T10:46:42.563Z,19.80
2022-09-15T10:49:22.257Z,19.40
2022-09-15T10:51:56.855Z,19.20
2022-09-15T10:54:42.702Z,19.10
2022-09-15T10:57:19.798Z,19.10
2022-09-15T10:59:54.875Z,19.10
2022-09-15T11:02:41.376Z,19.00
2022-09-15T11:05:35.604Z,18.80
2022-09-15T11:08:19.749Z,18.60
2022-09-15T11:10:54.911Z,18.40
2022-09-15T11:13:29.503Z,18.30
2022-09-15T11:16:05.736Z,18.10
2022-09-15T11:18:45.781Z,18.00
2022-09-15T11:21:24.409Z,18.10
2022-09-15T11:24:06.723Z,18.10
2022-09-15T11:26:42.182Z,18.10
2022-09-15T11:29:16.965Z,18.10
2022-09-15T11:31:51.655Z,18.20
2022-09-15T11:34:26.303Z,18.20
2022-09-15T11:37:01.979Z,18.20
2022-09-15T11:39:36.468Z,18.20
2022-09-15T11:42:11.990Z,18.20
2022-09-15T11:44:45.699Z,18.20
2022-09-15T11:47:25.509Z,18.20
2022-09-15T11:49:59.922Z,18.20
2022-09-15T11:52:48.114Z,18.10
2022-09-15T11:55:28.499Z,18.20
2022-09-15T11:58:05.101Z,18.30
2022-09-15T12:00:38.623Z,18.30
2022-09-15T12:03:16.982Z,18.40
2022-09-15T12:05:51.637Z,18.50
2022-09-15T12:08:27.323Z,18.60
2022-09-15T12:11:00.830Z,18.80
2022-09-15T12:13:32.828Z,18.90
2022-09-15T12:16:06.045Z,18.90
2022-09-15T12:18:42.861Z,19.00
2022-09-15T12:21:18.526Z,19.00
2022-09-15T12:23:54.065Z,19.20
2022-09-15T12:26:27.039Z,19.30
2022-09-15T12:29:02.127Z,19.30
2022-09-15T12:31:37.091Z,19.40
2022-09-15T12:34:35.642Z,19.50
2022-09-15T12:37:13.851Z,19.50
2022-09-15T12:39:47.184Z,19.50
2022-09-15T12:42:24.238Z,19.60
2022-09-15T12:44:58.561Z,19.70
2022-09-15T12:47:33.773Z,19.60
2022-09-15T12:50:18.603Z,19.70
2022-09-15T12:52:53.308Z,19.70
2022-09-15T12:55:27.224Z,19.80
2022-09-15T12:58:01.035Z,19.80
2022-09-15T13:00:42.390Z,19.70
2022-09-15T13:03:29.569Z,19.60
2022-09-15T13:06:19.315Z,19.50
2022-09-15T13:08:56.470Z,19.60
2022-09-15T13:11:38.708Z,19.50
2022-09-15T13:14:19.781Z,19.40
2022-09-15T13:16:58.326Z,19.30
2022-09-15T13:19:33.224Z,19.30
2022-09-15T13:22:07.658Z,19.30
2022-09-15T13:24:45.808Z,19.30
2022-09-15T13:27:20.751Z,19.40
2022-09-15T13:29:55.231Z,19.30
2022-09-15T13:32:40.081Z,19.40
2022-09-15T13:35:37.090Z,19.40
2022-09-15T13:38:36.931Z,19.50
2022-09-15T13:41:35.786Z,19.60
2022-09-15T13:44:23.397Z,19.60
2022-09-15T13:47:02.771Z,19.70
2022-09-15T13:49:47.377Z,19.90
2022-09-15T13:52:26.116Z,20.10
2022-09-15T13:55:15.360Z,20.30
2022-09-15T14:00:29.634Z,20.50
2022-09-15T14:03:04.082Z,20.60
2022-09-15T14:05:37.505Z,20.70
2022-09-15T14:08:12.193Z,20.80
2022-09-15T14:10:48.249Z,20.70
2022-09-15T14:13:22.092Z,20.40
2022-09-15T14:16:01.594Z,20.30
2022-09-15T14:18:43.361Z,20.30
2022-09-15T14:21:18.877Z,20.40
2022-09-15T14:23:52.231Z,20.30
2022-09-15T14:26:26.427Z,20.10
2022-09-15T14:29:00.475Z,19.90
2022-09-15T14:31:35.581Z,19.90
2022-09-15T14:34:09.806Z,19.90
2022-09-15T14:36:41.664Z,19.80
2022-09-15T14:39:22.201Z,19.80
2022-09-15T14:41:53.643Z,19.80
2022-09-15T14:47:12.204Z,19.80
2022-09-15T14:49:43.569Z,19.70
2022-09-15T14:52:24.315Z,19.70
2022-09-15T14:54:58.997Z,19.70
2022-09-15T14:57:33.245Z,19.70
2022-09-15T15:00:09.071Z,19.60
2022-09-15T15:02:49.382Z,19.50
2022-09-15T15:05:23.507Z,19.40
2022-09-15T15:07:56.231Z,19.40
2022-09-15T15:10:35.691Z,19.30
2022-09-15T15:13:07.867Z,19.30
2022-09-15T15:15:41.165Z,19.30
2022-09-15T15:18:33.424Z,19.40
2022-09-15T15:21:04.727Z,19.50
2022-09-15T15:23:37.689Z,19.60
2022-09-15T15:26:34.637Z,19.70
2022-09-15T15:29:09.629Z,19.70
2022-09-15T15:31:41.301Z,19.80
2022-09-15T15:34:24.732Z,19.80
2022-09-15T15:37:03.395Z,19.80
2022-09-15T15:39:35.117Z,19.70
2022-09-15T15:42:08.624Z,19.70
2022-09-15T15:44:41.550Z,19.70
2022-09-15T15:47:29.403Z,19.70
2022-09-15T15:50:13.316Z,19.70
2022-09-15T15:52:42.088Z,19.60
2022-09-15T15:55:17.036Z,19.60
2022-09-15T15:57:51.584Z,19.50
2022-09-15T16:00:25.146Z,19.50
2022-09-15T16:02:56.976Z,19.50
2022-09-15T16:05:30.182Z,19.50
2022-09-15T16:08:06.041Z,19.50
2022-09-15T16:10:42.581Z,19.50
2022-09-15T16:13:17.457Z,19.50
2022-09-15T16:15:50.685Z,19.50
2022-09-15T16:18:22.031Z,19.50
2022-09-15T16:20:53.473Z,19.60
2022-09-15T16:23:25.240Z,19.60
2022-09-15T16:25:59.692Z,19.50
2022-09-15T16:28:31.351Z,19.40
2022-09-15T16:31:02.908Z,19.40
2022-09-15T16:33:37.931Z,19.30
2022-09-15T16:36:12.215Z,19.20
2022-09-15T16:38:44.432Z,19.20
2022-09-15T16:41:17.752Z,19.20
2022-09-15T16:43:48.991Z,19.10
2022-09-15T16:46:20.498Z,19.00
2022-09-15T16:48:51.870Z,19.00
2022-09-15T16:51:31.149Z,19.00
2022-09-15T16:54:01.273Z,18.90
2022-09-15T16:56:32.701Z,18.70
2022-09-15T16:59:04.356Z,18.50
2022-09-15T17:01:35.893Z,18.30
2022-09-15T17:04:12.499Z,17.90
2022-09-15T17:06:44.272Z,17.50
2022-09-15T17:09:15.713Z,17.30
2022-09-15T17:11:47.082Z,17.20
2022-09-15T17:14:18.615Z,17.10
2022-09-15T17:16:53.100Z,17.00
2022-09-15T17:19:24.457Z,17.00
2022-09-15T17:21:55.694Z,17.00
2022-09-15T17:24:26.989Z,17.00
2022-09-15T17:26:58.261Z,17.00
2022-09-15T17:29:29.744Z,17.00
2022-09-15T17:32:01.260Z,17.10
2022-09-15T17:34:32.524Z,17.10
2022-09-15T17:37:03.858Z,17.00
2022-09-15T17:39:36.018Z,17.00
2022-09-15T17:42:09.712Z,17.00
2022-09-15T17:44:41.418Z,17.00
2022-09-15T17:47:12.665Z,16.90
2022-09-15T17:49:43.924Z,17.00
2022-09-15T17:52:15.338Z,17.00
2022-09-15T17:54:46.609Z,17.00
2022-09-15T17:57:17.941Z,17.00
2022-09-15T17:59:49.293Z,16.90
2022-09-15T18:02:21.401Z,17.00
2022-09-15T18:04:52.690Z,17.00
2022-09-15T18:07:24.366Z,16.90
2022-09-15T18:09:56.402Z,17.00
2022-09-15T18:12:27.670Z,17.00
2022-09-15T18:14:58.987Z,17.00
2022-09-15T18:17:30.290Z,17.00
2022-09-15T18:20:01.974Z,17.00
2022-09-15T18:22:33.353Z,17.00
2022-09-15T18:25:05.032Z,17.00
2022-09-15T18:27:36.541Z,17.00
2022-09-15T18:30:10.583Z,17.00
2022-09-15T18:32:41.977Z,17.00
2022-09-15T18:35:18.394Z,17.00
2022-09-15T18:37:48.641Z,16.90
2022-09-15T18:40:20.602Z,16.90
2022-09-15T18:42:51.845Z,16.90
2022-09-15T18:45:23.232Z,16.90
2022-09-15T18:47:55.069Z,16.90
2022-09-15T18:50:26.947Z,16.90
2022-09-15T18:52:58.202Z,16.90
2022-09-15T18:55:29.664Z,16.80
2022-09-15T18:58:01.485Z,16.80
2022-09-15T19:00:32.924Z,16.80
2022-09-15T19:03:06.105Z,16.80
2022-09-15T19:05:38.554Z,16.80
2022-09-15T19:08:11.314Z,16.80
2022-09-15T19:10:44.054Z,16.80
2022-09-15T19:13:15.863Z,16.70
2022-09-15T19:15:49.184Z,16.70
2022-09-15T19:18:20.379Z,16.70
2022-09-15T19:20:51.785Z,16.80
2022-09-15T19:23:23.420Z,16.80
2022-09-15T19:25:54.617Z,16.80
2022-09-15T19:28:25.887Z,16.80
2022-09-15T19:30:57.435Z,16.80
2022-09-15T19:33:29.183Z,16.80
2022-09-15T19:36:26.993Z,16.70
2022-09-15T19:38:38.094Z,16.70
2022-09-15T19:41:11.793Z,16.70
2022-09-15T19:43:43.413Z,16.70
2022-09-15T19:46:16.353Z,16.80
2022-09-15T19:48:50.030Z,16.80
2022-09-15T19:51:21.958Z,16.80
2022-09-15T19:53:56.764Z,16.80
2022-09-15T19:56:30.625Z,16.80
2022-09-15T19:59:02.112Z,16.80
2022-09-15T20:01:33.957Z,16.90
2022-09-15T20:06:54.630Z,16.90
2022-09-15T20:09:26.148Z,16.90
2022-09-15T20:11:57.330Z,16.80
2022-09-15T20:14:28.571Z,16.80
2022-09-15T20:17:01.254Z,16.60
2022-09-15T20:19:33.542Z,16.60
2022-09-15T20:22:04.812Z,16.60
2022-09-15T20:24:36.077Z,16.60
2022-09-15T20:27:08.874Z,16.50
2022-09-15T20:29:40.311Z,16.50
2022-09-15T20:32:11.756Z,16.50
2022-09-15T20:34:42.935Z,16.50
2022-09-15T20:37:14.263Z,16.40
2022-09-15T20:39:47.569Z,16.40
2022-09-15T20:42:19.092Z,16.40
2022-09-15T20:44:50.502Z,16.30
2022-09-15T20:47:21.947Z,16.30
2022-09-15T20:49:53.420Z,16.30
2022-09-15T20:52:29.226Z,16.30
2022-09-15T20:54:57.677Z,16.30
2022-09-15T20:57:29.028Z,16.30
2022-09-15T21:00:00.369Z,16.30
2022-09-15T21:02:31.661Z,16.40
2022-09-15T21:05:02.892Z,16.30
2022-09-15T21:07:34.299Z,16.40
2022-09-15T21:10:06.664Z,16.40
2022-09-15T21:12:37.979Z,16.40
2022-09-15T21:15:11.780Z,16.30
2022-09-15T21:17:43.131Z,16.30
2022-09-15T21:20:14.527Z,16.30
2022-09-15T21:22:45.778Z,16.30
2022-09-15T21:25:17.705Z,16.30
2022-09-15T21:27:50.880Z,16.20
2022-09-15T21:30:22.032Z,16.20
2022-09-15T21:32:53.291Z,16.20
2022-09-15T21:35:24.593Z,16.20
2022-09-15T21:38:00.486Z,16.20
2022-09-15T21:40:28.986Z,16.20
2022-09-15T21:43:00.172Z,16.30
2022-09-15T21:45:33.023Z,16.30
2022-09-15T21:48:04.815Z,16.20
2022-09-15T21:50:36.147Z,16.20
2022-09-15T21:53:07.391Z,16.20
2022-09-15T21:55:38.795Z,16.20
2022-09-15T21:58:10.237Z,16.10
2022-09-15T22:00:42.411Z,16.10
2022-09-15T22:03:14.185Z,16.20
2022-09-15T22:05:47.868Z,16.10
2022-09-15T22:08:19.346Z,16.20
2022-09-15T22:10:50.887Z,16.20
2022-09-15T22:13:22.304Z,16.20
2022-09-15T22:15:55.110Z,16.20
2022-09-15T22:18:26.505Z,16.30
2022-09-15T22:21:06.778Z,16.30
2022-09-15T22:23:38.661Z,16.30
2022-09-15T22:26:12.158Z,16.30
2022-09-15T22:28:44.065Z,16.30
2022-09-15T22:31:17.720Z,16.30
2022-09-15T22:33:49.148Z,16.20
2022-09-15T22:36:27.991Z,16.30
2022-09-15T22:38:56.751Z,16.30
2022-09-15T22:41:28.198Z,16.30
2022-09-15T22:43:59.804Z,16.30
2022-09-15T22:46:31.260Z,16.30
2022-09-15T22:49:02.686Z,16.30
2022-09-15T22:51:34.131Z,16.30
2022-09-15T22:54:05.640Z,16.20
2022-09-15T22:56:37.044Z,16.20
2022-09-15T22:59:08.337Z,16.20
2022-09-15T23:01:39.766Z,16.20
2022-09-15T23:04:11.094Z,16.20
2022-09-15T23:06:42.427Z,16.10
2022-09-15T23:09:14.052Z,16.10
2022-09-15T23:11:45.520Z,16.00
2022-09-15T23:14:18.863Z,16.00
2022-09-15T23:16:50.549Z,15.90
2022-09-15T23:19:21.921Z,15.80
2022-09-15T23:21:53.455Z,15.80
2022-09-15T23:24:25.126Z,15.70
2022-09-15T23:26:56.582Z,15.70
2022-09-15T23:29:28.102Z,15.60
2022-09-15T23:31:59.501Z,15.50
2022-09-15T23:34:30.991Z,15.50
2022-09-15T23:37:02.945Z,15.50
2022-09-15T23:39:34.380Z,15.40
2022-09-15T23:42:05.990Z,15.40
2022-09-15T23:44:37.361Z,15.40
2022-09-15T23:47:09.186Z,15.40
2022-09-15T23:49:40.566Z,15.30
2022-09-15T23:52:11.950Z,15.20
2022-09-15T23:54:44.738Z,15.00
2022-09-15T23:57:15.918Z,14.80
2022-09-15T23:59:47.279Z,14.60
